Time;durP1;ratioP1;P1;durP2;ratioP2;P2;SDS_P1;SDS_P2;PMS_P1;PMS_P2;Temp;Humidity;BMP_temperature;BMP_pressure;BME280_temperature;BME280_humidity;BME280_pressure;Samples;Min_cycle;Max_cycle;Signal;HPM_P1;HPM_P2
2021/08/02 00:02:05;;;;;;;;;;;15.30;99.90;;;;;;6337655;28;19981;-69
2021/08/02 00:05:07;;;;;;;;;;;15.30;99.90;;;;;;6347967;28;20104;-69
2021/08/02 00:08:10;;;;;;;;;;;15.30;99.90;;;;;;6346269;28;19976;-69
2021/08/02 00:11:13;;;;;;;;;;;15.30;99.90;;;;;;6340925;28;19973;-69
2021/08/02 00:14:15;;;;;;;;;;;15.40;99.90;;;;;;6316196;28;19976;-69
2021/08/02 00:17:17;;;;;;;;;;;15.30;99.90;;;;;;6345148;28;20458;-69
2021/08/02 00:20:20;;;;;;;;;;;15.30;99.90;;;;;;6317021;28;19984;-69
2021/08/02 00:23:24;;;;;;;;;;;15.30;99.90;;;;;;6320016;28;20180;-69
2021/08/02 00:26:26;;;;;;;;;;;15.30;99.90;;;;;;6345556;28;20420;-69
2021/08/02 00:29:30;;;;;;;;;;;15.30;99.90;;;;;;6326121;28;19979;-69
2021/08/02 00:32:33;;;;;;;;;;;15.30;99.90;;;;;;6311923;28;19980;-69
2021/08/02 00:35:38;;;;;;;;;;;15.30;99.90;;;;;;6346939;28;20395;-69
2021/08/02 00:38:52;;;;;;;;;;;15.30;99.90;;;;;;6344342;28;19980;-69
2021/08/02 00:42:04;;;;;;;;;;;15.30;99.90;;;;;;6316100;28;19984;-69
2021/08/02 00:45:05;;;;;;;;;;;15.30;99.90;;;;;;6342143;28;19976;-69
2021/08/02 00:48:11;;;;;;;;;;;15.30;99.90;;;;;;6326715;28;19987;-69
2021/08/02 00:51:14;;;;;;;;;;;15.30;99.90;;;;;;6313671;28;20386;-69
2021/08/02 00:54:16;;;;;;;;;;;15.30;99.90;;;;;;6341568;28;19976;-69
2021/08/02 00:57:18;;;;;;;;;;;15.30;99.90;;;;;;6311250;28;19996;-69
2021/08/02 01:00:20;;;;;;;;;;;15.30;99.90;;;;;;6327218;28;19972;-69
2021/08/02 01:03:22;;;;;;;;;;;15.20;99.90;;;;;;6340558;28;20410;-69
2021/08/02 01:06:25;;;;;;;;;;;15.20;99.90;;;;;;6340231;28;20455;-69
2021/08/02 01:09:28;;;;;;;;;;;15.30;99.90;;;;;;6343321;28;19983;-69
2021/08/02 01:12:34;;;;;;;;;;;15.30;99.90;;;;;;6341607;28;20390;-69
2021/08/02 01:15:36;;;;;;;;;;;15.30;99.90;;;;;;6346832;28;19972;-69
2021/08/02 01:18:38;;;;;;;;;;;15.30;99.90;;;;;;6335356;28;20021;-69
2021/08/02 01:21:40;;;;;;;;;;;15.30;99.90;;;;;;6337428;28;20451;-69
2021/08/02 01:24:43;;;;;;;;;;;15.20;99.90;;;;;;6342616;28;19972;-69
2021/08/02 01:27:46;;;;;;;;;;;15.20;99.90;;;;;;6315971;28;20315;-69
2021/08/02 01:30:48;;;;;;;;;;;15.20;99.90;;;;;;6344655;28;19987;-69
2021/08/02 01:33:50;;;;;;;;;;;15.20;99.90;;;;;;6342777;28;20069;-69
2021/08/02 01:36:52;;;;;;;;;;;15.20;99.90;;;;;;6345490;28;19995;-69
2021/08/02 01:39:54;;;;;;;;;;;15.20;99.90;;;;;;6342848;28;19987;-69
2021/08/02 01:43:03;;;;;;;;;;;15.20;99.90;;;;;;6316826;28;19987;-69
2021/08/02 01:46:07;;;;;;;;;;;15.20;99.90;;;;;;6339831;28;19983;-69
2021/08/02 01:49:14;;;;;;;;;;;15.20;99.90;;;;;;6323482;28;20173;-69
2021/08/02 01:52:25;;;;;;;;;;;15.20;99.90;;;;;;6312716;28;20346;-69
2021/08/02 01:55:27;;;;;;;;;;;15.30;99.90;;;;;;6313849;28;19996;-69
2021/08/02 01:58:32;;;;;;;;;;;15.30;99.90;;;;;;6337567;28;20455;-69
2021/08/02 02:01:53;;;;;;;;;;;15.30;99.90;;;;;;6333945;28;19980;-69
2021/08/02 02:05:06;;;;;;;;;;;15.30;99.90;;;;;;6342236;28;20015;-69
2021/08/02 02:08:10;;;;;;;;;;;15.30;99.90;;;;;;6336820;28;19983;-69
2021/08/02 02:11:13;;;;;;;;;;;15.30;99.90;;;;;;6339695;28;19980;-69
2021/08/02 02:14:15;;;;;;;;;;;15.30;99.90;;;;;;6318561;28;20457;-69
2021/08/02 02:17:18;;;;;;;;;;;15.30;99.90;;;;;;6342653;28;20491;-69
2021/08/02 02:20:20;;;;;;;;;;;15.30;99.90;;;;;;6332382;28;19983;-69
2021/08/02 02:23:22;;;;;;;;;;;15.30;99.90;;;;;;6342329;28;19976;-69
2021/08/02 02:26:27;;;;;;;;;;;15.30;99.90;;;;;;6344642;28;19984;-69
2021/08/02 02:29:29;;;;;;;;;;;15.30;99.90;;;;;;6341623;28;19972;-69
2021/08/02 02:32:31;;;;;;;;;;;15.30;99.90;;;;;;6321478;28;19980;-69
2021/08/02 02:35:40;;;;;;;;;;;15.30;99.90;;;;;;6344959;28;20022;-69
2021/08/02 02:38:43;;;;;;;;;;;15.30;99.90;;;;;;6342039;28;20048;-69
2021/08/02 02:41:45;;;;;;;;;;;15.30;99.90;;;;;;6313049;28;20484;-69
2021/08/02 02:44:48;;;;;;;;;;;15.30;99.90;;;;;;6320076;28;20454;-69
2021/08/02 02:47:50;;;;;;;;;;;15.20;99.90;;;;;;6324458;28;19972;-69
2021/08/02 02:50:52;;;;;;;;;;;15.20;99.90;;;;;;6342923;28;19979;-69
2021/08/02 02:53:54;;;;;;;;;;;15.20;99.90;;;;;;6337029;28;19990;-69
2021/08/02 02:56:56;;;;;;;;;;;15.20;99.90;;;;;;6311482;28;19992;-69
2021/08/02 02:59:58;;;;;;;;;;;15.20;99.90;;;;;;6323674;28;19983;-69
2021/08/02 03:03:00;;;;;;;;;;;15.20;99.90;;;;;;6314152;28;20381;-69
2021/08/02 03:06:02;;;;;;;;;;;15.20;99.90;;;;;;6344040;28;19988;-69
2021/08/02 03:09:05;;;;;;;;;;;15.20;99.90;;;;;;6313768;28;20002;-69
2021/08/02 03:12:07;;;;;;;;;;;15.20;99.90;;;;;;6343379;28;19972;-69
2021/08/02 03:15:09;;;;;;;;;;;15.20;99.90;;;;;;6322613;28;19987;-69
2021/08/02 03:18:10;;;;;;;;;;;15.20;99.90;;;;;;6325174;28;20037;-69
2021/08/02 03:21:13;;;;;;;;;;;15.10;99.90;;;;;;6336946;28;20427;-69
2021/08/02 03:24:20;;;;;;;;;;;15.10;99.90;;;;;;6311749;28;20376;-69
2021/08/02 03:27:33;;;;;;;;;;;15.10;99.90;;;;;;6347484;28;20017;-69
2021/08/02 03:30:36;;;;;;;;;;;15.10;99.90;;;;;;6343451;28;19984;-69
2021/08/02 03:33:40;;;;;;;;;;;15.10;99.90;;;;;;6321228;28;19983;-69
2021/08/02 03:36:42;;;;;;;;;;;15.00;99.90;;;;;;6348937;28;19996;-69
2021/08/02 03:39:45;;;;;;;;;;;15.00;99.90;;;;;;6345581;28;21194;-69
2021/08/02 03:42:47;;;;;;;;;;;14.90;99.90;;;;;;6347135;28;19972;-69
2021/08/02 03:45:49;;;;;;;;;;;14.90;99.90;;;;;;6348883;28;19976;-69
2021/08/02 03:48:51;;;;;;;;;;;14.90;99.90;;;;;;6344350;28;20487;-69
2021/08/02 03:51:53;;;;;;;;;;;14.80;99.90;;;;;;6348901;28;19979;-69
2021/08/02 03:54:55;;;;;;;;;;;14.80;99.90;;;;;;6341269;28;19987;-69
2021/08/02 03:57:57;;;;;;;;;;;14.80;99.90;;;;;;6322112;28;19991;-69
2021/08/02 04:00:59;;;;;;;;;;;14.70;99.90;;;;;;6311942;28;19979;-69
2021/08/02 04:04:00;;;;;;;;;;;14.70;99.90;;;;;;6340422;28;19983;-69
2021/08/02 04:07:03;;;;;;;;;;;14.70;99.90;;;;;;6346730;28;20338;-69
2021/08/02 04:10:05;;;;;;;;;;;14.60;99.90;;;;;;6317368;28;20435;-69
2021/08/02 04:13:07;;;;;;;;;;;14.60;99.90;;;;;;6341511;28;19979;-69
2021/08/02 04:16:09;;;;;;;;;;;14.50;99.90;;;;;;6348067;28;19976;-69
2021/08/02 04:19:10;;;;;;;;;;;14.50;99.90;;;;;;6316705;28;20010;-69
2021/08/02 04:22:12;;;;;;;;;;;14.40;99.90;;;;;;6344025;28;19975;-69
2021/08/02 04:25:14;;;;;;;;;;;14.40;99.90;;;;;;6327990;28;19982;-69
2021/08/02 04:28:15;;;;;;;;;;;14.40;99.90;;;;;;6320093;28;19988;-69
2021/08/02 04:31:17;;;;;;;;;;;14.40;99.90;;;;;;6345796;28;19979;-69
2021/08/02 04:34:19;;;;;;;;;;;14.30;99.90;;;;;;6341790;28;19990;-69
2021/08/02 04:37:32;;;;;;;;;;;14.30;99.90;;;;;;6346121;28;19977;-69
2021/08/02 04:40:34;;;;;;;;;;;14.40;99.90;;;;;;6345774;28;20336;-69
2021/08/02 04:43:36;;;;;;;;;;;14.40;99.90;;;;;;6342851;28;19983;-69
2021/08/02 04:46:38;;;;;;;;;;;14.40;99.90;;;;;;6346825;28;19981;-69
2021/08/02 04:49:40;;;;;;;;;;;14.40;99.90;;;;;;6343613;28;20307;-69
2021/08/02 04:52:42;;;;;;;;;;;14.50;99.90;;;;;;6343687;28;19976;-69
2021/08/02 04:55:44;;;;;;;;;;;14.50;99.90;;;;;;6317155;28;19998;-69
2021/08/02 04:58:46;;;;;;;;;;;14.50;99.90;;;;;;6343958;28;19992;-69
2021/08/02 05:01:47;;;;;;;;;;;14.60;99.90;;;;;;6346189;28;20480;-69
2021/08/02 05:04:52;;;;;;;;;;;14.60;99.90;;;;;;6343295;28;20021;-69
2021/08/02 05:07:54;;;;;;;;;;;14.70;99.90;;;;;;6345803;28;19979;-69
2021/08/02 05:10:55;;;;;;;;;;;14.80;99.90;;;;;;6343637;28;19980;-69
2021/08/02 05:13:57;;;;;;;;;;;14.90;99.90;;;;;;6341786;28;19999;-69
2021/08/02 05:16:59;;;;;;;;;;;15.00;99.90;;;;;;6317504;28;20078;-69
2021/08/02 05:20:00;;;;;;;;;;;15.10;99.90;;;;;;6315569;28;19996;-69
2021/08/02 05:23:02;;;;;;;;;;;15.10;99.90;;;;;;6341395;28;19979;-69
2021/08/02 05:26:04;;;;;;;;;;;15.10;99.90;;;;;;6346172;28;19976;-69
2021/08/02 05:29:06;;;;;;;;;;;15.10;99.90;;;;;;6342496;28;20453;-69
2021/08/02 05:32:07;;;;;;;;;;;15.10;99.90;;;;;;6326039;28;19976;-69
2021/08/02 05:35:10;;;;;;;;;;;15.10;99.90;;;;;;6313758;28;20046;-69
2021/08/02 05:38:11;;;;;;;;;;;15.10;99.90;;;;;;6343577;28;19988;-69
2021/08/02 05:41:13;;;;;;;;;;;15.20;99.90;;;;;;6345028;28;20010;-69
2021/08/02 05:44:15;;;;;;;;;;;15.20;99.90;;;;;;6338931;28;20248;-69
2021/08/02 05:47:16;;;;;;;;;;;15.20;99.90;;;;;;6336846;28;19983;-69
2021/08/02 05:50:19;;;;;;;;;;;15.30;99.90;;;;;;6318233;28;20056;-69
2021/08/02 05:53:20;;;;;;;;;;;15.40;99.90;;;;;;6339149;28;20017;-69
2021/08/02 05:56:22;;;;;;;;;;;15.50;99.90;;;;;;6327233;28;19980;-69
2021/08/02 05:59:23;;;;;;;;;;;15.70;99.90;;;;;;6341933;28;19991;-69
2021/08/02 06:02:25;;;;;;;;;;;15.70;99.90;;;;;;6312150;28;19972;-69
2021/08/02 06:05:27;;;;;;;;;;;15.80;99.90;;;;;;6337731;28;20090;-69
2021/08/02 06:08:28;;;;;;;;;;;15.90;99.90;;;;;;6317073;28;20390;-69
2021/08/02 06:11:30;;;;;;;;;;;16.00;99.90;;;;;;6344912;28;20021;-69
2021/08/02 06:14:32;;;;;;;;;;;16.00;99.90;;;;;;6316599;28;19980;-69
2021/08/02 06:17:33;;;;;;;;;;;16.10;99.90;;;;;;6342230;28;20078;-69
2021/08/02 06:20:35;;;;;;;;;;;16.20;99.90;;;;;;6310804;28;20025;-69
2021/08/02 06:23:37;;;;;;;;;;;16.30;99.90;;;;;;6318776;28;20438;-69
2021/08/02 06:26:38;;;;;;;;;;;16.30;99.90;;;;;;6344507;28;19986;-69
2021/08/02 06:29:40;;;;;;;;;;;16.30;99.90;;;;;;6339596;28;20529;-68
2021/08/02 06:32:42;;;;;;;;;;;16.40;99.90;;;;;;6342972;28;20421;-69
2021/08/02 06:35:44;;;;;;;;;;;16.50;99.90;;;;;;6337835;28;19975;-69
2021/08/02 06:38:45;;;;;;;;;;;16.60;99.90;;;;;;6340173;28;20400;-69
2021/08/02 06:41:47;;;;;;;;;;;16.60;99.90;;;;;;6312809;28;19976;-69
2021/08/02 06:44:49;;;;;;;;;;;16.60;99.90;;;;;;6343408;28;19976;-69
2021/08/02 06:47:53;;;;;;;;;;;16.60;99.90;;;;;;6341422;28;20442;-66
2021/08/02 06:50:55;;;;;;;;;;;16.70;99.90;;;;;;6342754;28;20003;-66
2021/08/02 06:53:57;;;;;;;;;;;16.70;99.90;;;;;;6343121;28;19986;-66
2021/08/02 06:56:58;;;;;;;;;;;16.80;99.90;;;;;;6311859;28;20319;-66
2021/08/02 07:00:00;;;;;;;;;;;16.80;99.90;;;;;;6316532;28;19982;-66
2021/08/02 07:03:02;;;;;;;;;;;16.90;99.90;;;;;;6324286;28;19975;-66
2021/08/02 07:06:04;;;;;;;;;;;16.90;99.90;;;;;;6315171;28;19983;-66
2021/08/02 07:09:06;;;;;;;;;;;16.90;99.90;;;;;;6334361;28;20066;-66
2021/08/02 07:12:08;;;;;;;;;;;17.00;99.90;;;;;;6343069;28;19979;-66
2021/08/02 07:15:09;;;;;;;;;;;17.00;99.90;;;;;;6344279;28;20434;-66
2021/08/02 07:18:11;;;;;;;;;;;16.90;99.90;;;;;;6336024;28;19996;-66
2021/08/02 07:21:13;;;;;;;;;;;16.80;99.90;;;;;;6323641;28;19983;-66
2021/08/02 07:24:14;;;;;;;;;;;16.80;99.90;;;;;;6342848;28;19996;-66
2021/08/02 07:27:16;;;;;;;;;;;16.80;99.90;;;;;;6340990;28;19979;-67
2021/08/02 07:30:21;;;;;;;;;;;16.90;99.90;;;;;;6324382;28;19976;-66
2021/08/02 07:33:22;;;;;;;;;;;16.90;99.90;;;;;;6317018;28;19983;-67
2021/08/02 07:36:24;;;;;;;;;;;16.90;99.90;;;;;;6343676;28;20025;-67
2021/08/02 07:39:26;;;;;;;;;;;16.90;99.90;;;;;;6336574;28;20085;-66
2021/08/02 07:42:29;;;;;;;;;;;16.80;99.90;;;;;;6335503;28;19975;-66
2021/08/02 07:45:30;;;;;;;;;;;16.80;99.90;;;;;;6337247;28;19983;-66
2021/08/02 07:48:32;;;;;;;;;;;16.80;99.90;;;;;;6318755;28;19976;-66
2021/08/02 07:51:34;;;;;;;;;;;16.80;99.90;;;;;;6342158;28;19979;-66
2021/08/02 07:54:36;;;;;;;;;;;16.70;99.90;;;;;;6324215;28;20041;-66
2021/08/02 07:57:38;;;;;;;;;;;16.70;99.90;;;;;;6339236;28;19995;-66
2021/08/02 08:00:40;;;;;;;;;;;16.80;99.90;;;;;;6346392;28;20392;-66
2021/08/02 08:03:44;;;;;;;;;;;17.00;99.90;;;;;;6314761;28;19972;-66
2021/08/02 08:06:46;;;;;;;;;;;17.10;99.90;;;;;;6348562;28;19949;-66
2021/08/02 08:09:48;;;;;;;;;;;17.30;99.90;;;;;;6342417;28;19979;-66
2021/08/02 08:12:50;;;;;;;;;;;17.30;99.90;;;;;;6346062;28;19972;-66
2021/08/02 08:19:55;;;;;;;;;;;17.40;99.90;;;;;;6335602;28;20010;-67
2021/08/02 08:22:57;;;;;;;;;;;17.30;99.90;;;;;;6340759;28;19971;-67
2021/08/02 08:25:59;;;;;;;;;;;17.30;99.90;;;;;;6347608;28;19976;-67
2021/08/02 08:29:01;;;;;;;;;;;17.30;99.90;;;;;;6344865;28;19975;-67
2021/08/02 08:32:03;;;;;;;;;;;17.30;99.90;;;;;;6317882;28;20075;-67
2021/08/02 08:35:05;;;;;;;;;;;17.30;99.90;;;;;;6347306;28;19976;-67
2021/08/02 08:38:07;;;;;;;;;;;17.30;99.90;;;;;;6345206;28;20421;-67
2021/08/02 08:41:13;;;;;;;;;;;17.40;99.90;;;;;;6345566;28;19975;-67
2021/08/02 08:44:14;;;;;;;;;;;17.40;99.90;;;;;;6340824;28;19980;-67
2021/08/02 08:47:16;;;;;;;;;;;17.40;99.90;;;;;;6343570;28;19976;-66
2021/08/02 08:50:18;;;;;;;;;;;17.40;99.90;;;;;;6340703;28;19980;-66
2021/08/02 08:53:20;;;;;;;;;;;17.30;99.90;;;;;;6346171;28;19976;-66
2021/08/02 08:56:22;;;;;;;;;;;17.20;99.90;;;;;;6328961;28;19987;-66
2021/08/02 08:59:24;;;;;;;;;;;17.10;99.90;;;;;;6320310;28;20096;-67
2021/08/02 09:02:26;;;;;;;;;;;17.00;99.90;;;;;;6343125;28;19982;-66
2021/08/02 09:05:34;;;;;;;;;;;16.90;99.90;;;;;;6346773;28;20028;-67
2021/08/02 09:08:40;;;;;;;;;;;16.90;99.90;;;;;;6340484;28;19972;-66
2021/08/02 09:11:41;;;;;;;;;;;16.80;99.90;;;;;;6344608;28;20453;-66
2021/08/02 09:14:50;;;;;;;;;;;16.80;99.90;;;;;;6344843;28;19982;-66
2021/08/02 09:17:51;;;;;;;;;;;16.80;99.90;;;;;;6342820;28;20378;-67
2021/08/02 09:21:03;;;;;;;;;;;16.70;99.90;;;;;;6324942;28;20055;-66
2021/08/02 09:24:05;;;;;;;;;;;16.70;99.90;;;;;;6339848;28;19983;-67
2021/08/02 09:27:06;;;;;;;;;;;16.70;99.90;;;;;;6344019;28;19984;-66
2021/08/02 09:30:12;;;;;;;;;;;16.70;99.90;;;;;;6342220;28;20418;-67
2021/08/02 09:33:13;;;;;;;;;;;16.70;99.90;;;;;;6337714;28;20338;-67
2021/08/02 09:36:15;;;;;;;;;;;16.70;99.90;;;;;;6346206;28;19983;-66
2021/08/02 09:39:17;;;;;;;;;;;16.80;99.90;;;;;;6339995;28;20536;-67
2021/08/02 09:42:22;;;;;;;;;;;16.80;99.90;;;;;;6342814;28;19987;-66
2021/08/02 09:45:45;;;;;;;;;;;16.90;99.90;;;;;;6317660;28;20090;-67
2021/08/02 09:48:47;;;;;;;;;;;16.90;99.90;;;;;;6320365;28;20133;-67
2021/08/02 09:51:48;;;;;;;;;;;17.00;99.90;;;;;;6310655;28;19986;-66
2021/08/02 09:54:58;;;;;;;;;;;17.10;99.90;;;;;;6344015;28;19999;-67
2021/08/02 09:58:00;;;;;;;;;;;17.10;99.90;;;;;;6314356;28;20358;-67
2021/08/02 10:01:14;;;;;;;;;;;17.20;99.90;;;;;;6338472;28;20084;-66
2021/08/02 10:04:17;;;;;;;;;;;17.30;99.90;;;;;;6343751;28;19983;-67
2021/08/02 10:07:19;;;;;;;;;;;17.40;99.90;;;;;;6318466;28;20426;-66
2021/08/02 10:10:20;;;;;;;;;;;17.50;99.90;;;;;;6331994;28;19971;-66
2021/08/02 10:13:23;;;;;;;;;;;17.50;99.90;;;;;;6326169;28;19976;-66
2021/08/02 10:16:27;;;;;;;;;;;17.60;99.90;;;;;;6339744;28;19980;-66
2021/08/02 10:19:39;;;;;;;;;;;17.70;99.90;;;;;;6329104;28;20121;-66
2021/08/02 10:22:45;;;;;;;;;;;17.80;99.90;;;;;;6318118;28;19976;-67
2021/08/02 10:25:47;;;;;;;;;;;17.90;99.90;;;;;;6318764;28;19994;-67
2021/08/02 10:28:56;;;;;;;;;;;17.90;99.90;;;;;;6315681;28;19990;-66
2021/08/02 10:31:59;;;;;;;;;;;18.00;99.90;;;;;;6333282;28;19984;-67
2021/08/02 10:35:00;;;;;;;;;;;18.00;99.90;;;;;;6344348;28;19983;-66
2021/08/02 10:38:05;;;;;;;;;;;18.00;99.90;;;;;;6341163;28;19992;-67
2021/08/02 10:41:07;;;;;;;;;;;18.00;99.90;;;;;;6342894;28;19972;-66
2021/08/02 10:44:15;;;;;;;;;;;18.00;99.90;;;;;;6343125;28;19991;-67
2021/08/02 10:47:16;;;;;;;;;;;18.00;99.90;;;;;;6341287;28;19980;-66
2021/08/02 10:50:25;;;;;;;;;;;18.00;99.90;;;;;;6308053;28;19976;-66
2021/08/02 10:53:27;;;;;;;;;;;18.00;99.90;;;;;;6338901;28;19984;-66
2021/08/02 10:56:30;;;;;;;;;;;18.00;99.90;;;;;;6344781;28;20448;-67
2021/08/02 10:59:36;;;;;;;;;;;18.00;99.90;;;;;;6334598;28;20000;-67
2021/08/02 11:02:46;;;;;;;;;;;18.00;99.90;;;;;;6338990;28;20431;-67
2021/08/02 11:05:48;;;;;;;;;;;18.10;99.90;;;;;;6340705;28;19976;-66
2021/08/02 11:08:51;;;;;;;;;;;18.10;99.90;;;;;;6315556;28;19972;-67
2021/08/02 11:12:13;;;;;;;;;;;18.10;99.90;;;;;;6310994;28;20419;-67
2021/08/02 11:15:15;;;;;;;;;;;18.20;99.90;;;;;;6324343;28;19983;-67
2021/08/02 11:18:24;;;;;;;;;;;18.20;99.90;;;;;;6337170;28;20015;-67
2021/08/02 11:21:26;;;;;;;;;;;18.20;99.90;;;;;;6333424;28;19976;-67
2021/08/02 11:24:28;;;;;;;;;;;18.30;99.90;;;;;;6342632;28;20411;-67
2021/08/02 11:27:30;;;;;;;;;;;18.40;99.90;;;;;;6340699;28;19980;-67
2021/08/02 11:30:32;;;;;;;;;;;18.50;99.90;;;;;;6342987;28;19982;-67
2021/08/02 11:33:35;;;;;;;;;;;18.50;99.90;;;;;;6344047;28;19983;-66
2021/08/02 11:36:37;;;;;;;;;;;18.50;99.90;;;;;;6318823;28;19995;-66
2021/08/02 11:39:40;;;;;;;;;;;18.60;99.90;;;;;;6344541;28;19998;-67
2021/08/02 11:42:42;;;;;;;;;;;18.60;99.90;;;;;;6343801;28;19972;-66
2021/08/02 11:45:44;;;;;;;;;;;18.60;99.90;;;;;;6348760;28;19982;-67
2021/08/02 11:48:46;;;;;;;;;;;18.60;99.90;;;;;;6345731;28;19971;-67
2021/08/02 11:51:48;;;;;;;;;;;18.70;99.90;;;;;;6310944;28;20406;-66
2021/08/02 11:55:04;;;;;;;;;;;18.70;99.90;;;;;;6315064;28;19988;-67
2021/08/02 11:58:07;;;;;;;;;;;18.70;99.90;;;;;;6328226;28;19983;-67
2021/08/02 12:01:09;;;;;;;;;;;18.80;99.90;;;;;;6328938;28;20012;-67
2021/08/02 12:04:10;;;;;;;;;;;18.90;99.90;;;;;;6346312;28;19980;-66
2021/08/02 12:07:21;;;;;;;;;;;18.80;99.90;;;;;;6345860;28;19976;-67
2021/08/02 12:10:24;;;;;;;;;;;18.80;99.90;;;;;;6342642;28;19980;-67
2021/08/02 12:13:39;;;;;;;;;;;18.80;99.90;;;;;;6346873;28;19987;-66
2021/08/02 12:16:40;;;;;;;;;;;18.60;99.90;;;;;;6348362;28;19995;-67
2021/08/02 12:19:45;;;;;;;;;;;18.60;99.90;;;;;;6334669;28;19995;-66
2021/08/02 12:22:50;;;;;;;;;;;18.50;99.90;;;;;;6316386;28;19979;-66
2021/08/02 12:25:53;;;;;;;;;;;18.50;99.90;;;;;;6347821;28;20295;-66
2021/08/02 12:28:55;;;;;;;;;;;18.40;99.90;;;;;;6335464;28;20021;-66
2021/08/02 12:31:57;;;;;;;;;;;18.40;99.90;;;;;;6346570;28;20019;-67
2021/08/02 12:34:59;;;;;;;;;;;18.30;99.90;;;;;;6346318;28;19982;-67
2021/08/02 12:38:02;;;;;;;;;;;18.30;99.90;;;;;;6342256;28;20590;-67
2021/08/02 12:41:07;;;;;;;;;;;18.30;99.90;;;;;;6345114;28;19980;-67
2021/08/02 12:44:09;;;;;;;;;;;18.30;99.90;;;;;;6343765;28;20345;-67
2021/08/02 12:47:10;;;;;;;;;;;18.30;99.90;;;;;;6317303;28;20017;-67
2021/08/02 12:50:13;;;;;;;;;;;18.30;99.90;;;;;;6343772;28;19976;-67
2021/08/02 12:53:15;;;;;;;;;;;18.30;99.90;;;;;;6320763;28;19979;-67
2021/08/02 12:56:16;;;;;;;;;;;18.30;99.90;;;;;;6318114;28;19982;-66
2021/08/02 12:59:18;;;;;;;;;;;18.30;99.90;;;;;;6341902;28;19995;-67
2021/08/02 13:02:20;;;;;;;;;;;18.30;99.90;;;;;;6344980;28;21727;-67
2021/08/02 13:05:22;;;;;;;;;;;18.30;99.90;;;;;;6347071;28;20021;-66
2021/08/02 13:08:24;;;;;;;;;;;18.30;99.90;;;;;;6339893;28;19996;-66
2021/08/02 13:11:25;;;;;;;;;;;18.30;99.90;;;;;;6344634;28;19975;-66
2021/08/02 13:14:27;;;;;;;;;;;18.30;99.90;;;;;;6345330;28;20411;-67
2021/08/02 13:17:29;;;;;;;;;;;18.40;99.90;;;;;;6313711;28;20421;-67
2021/08/02 13:20:31;;;;;;;;;;;18.30;99.90;;;;;;6310418;28;19995;-67
2021/08/02 13:23:37;;;;;;;;;;;18.40;99.90;;;;;;6344753;28;19976;-67
2021/08/02 13:26:57;;;;;;;;;;;18.40;99.90;;;;;;6317532;28;19976;-66
2021/08/02 13:29:59;;;;;;;;;;;18.40;99.90;;;;;;6343176;28;20568;-67
2021/08/02 13:33:01;;;;;;;;;;;18.40;99.90;;;;;;6343704;28;19959;-67
2021/08/02 13:36:02;;;;;;;;;;;18.40;99.90;;;;;;6345922;28;19983;-66
2021/08/02 13:39:05;;;;;;;;;;;18.40;99.90;;;;;;6307387;28;19992;-67
2021/08/02 13:42:07;;;;;;;;;;;18.50;99.90;;;;;;6344386;28;20021;-67
2021/08/02 13:45:10;;;;;;;;;;;18.50;99.90;;;;;;6345767;28;19980;-66
2021/08/02 13:48:12;;;;;;;;;;;18.60;99.90;;;;;;6337888;28;19972;-66
2021/08/02 13:51:14;;;;;;;;;;;18.70;99.90;;;;;;6337616;28;20052;-67
2021/08/02 13:54:17;;;;;;;;;;;18.70;99.90;;;;;;6344300;28;19975;-66
2021/08/02 13:57:19;;;;;;;;;;;18.70;99.90;;;;;;6341671;28;19980;-66
2021/08/02 14:00:20;;;;;;;;;;;18.70;99.90;;;;;;6340832;28;19999;-66
2021/08/02 14:03:22;;;;;;;;;;;18.70;99.90;;;;;;6343830;28;20006;-67
2021/08/02 14:06:24;;;;;;;;;;;18.70;99.90;;;;;;6345143;28;19976;-66
2021/08/02 14:09:26;;;;;;;;;;;18.80;99.90;;;;;;6337485;28;20399;-66
2021/08/02 14:12:32;;;;;;;;;;;18.80;99.90;;;;;;6343964;28;19972;-67
2021/08/02 14:15:42;;;;;;;;;;;18.80;99.90;;;;;;6338805;28;19972;-67
2021/08/02 14:19:04;;;;;;;;;;;18.90;99.90;;;;;;6336129;28;20003;-66
2021/08/02 14:22:06;;;;;;;;;;;19.00;99.90;;;;;;6328681;28;19976;-66
2021/08/02 14:25:08;;;;;;;;;;;19.00;99.90;;;;;;6337614;28;19983;-67
2021/08/02 14:28:10;;;;;;;;;;;19.00;99.90;;;;;;6341019;28;19983;-67
2021/08/02 14:31:12;;;;;;;;;;;19.10;99.90;;;;;;6304388;28;19971;-67
2021/08/02 14:34:14;;;;;;;;;;;19.20;99.90;;;;;;6342722;28;20449;-67
2021/08/02 14:37:19;;;;;;;;;;;19.30;99.90;;;;;;6342280;28;19987;-67
2021/08/02 14:40:22;;;;;;;;;;;19.30;99.90;;;;;;6309768;28;19999;-67
2021/08/02 14:43:26;;;;;;;;;;;19.30;99.90;;;;;;6343357;28;19979;-66
2021/08/02 14:46:29;;;;;;;;;;;19.20;99.90;;;;;;6316080;28;19976;-67
2021/08/02 14:49:31;;;;;;;;;;;19.20;99.90;;;;;;6310688;28;20403;-69
2021/08/02 14:52:35;;;;;;;;;;;19.20;99.90;;;;;;6313994;28;20082;-69
2021/08/02 14:55:37;;;;;;;;;;;19.20;99.90;;;;;;6344692;28;19983;-69
2021/08/02 14:58:39;;;;;;;;;;;19.20;99.90;;;;;;6341037;28;19987;-69
2021/08/02 15:01:41;;;;;;;;;;;19.20;99.90;;;;;;6318719;28;19999;-69
2021/08/02 15:04:44;;;;;;;;;;;19.20;99.90;;;;;;6335963;28;19983;-69
2021/08/02 15:07:47;;;;;;;;;;;19.20;99.90;;;;;;6342176;28;19971;-69
2021/08/02 15:10:52;;;;;;;;;;;19.10;99.90;;;;;;6348101;28;19972;-69
2021/08/02 15:13:54;;;;;;;;;;;19.10;99.90;;;;;;6341300;28;20021;-66
2021/08/02 15:17:00;;;;;;;;;;;19.10;99.90;;;;;;6348004;28;20358;-67
2021/08/02 15:20:02;;;;;;;;;;;19.10;99.90;;;;;;6313527;28;20003;-67
2021/08/02 15:23:10;;;;;;;;;;;19.10;99.90;;;;;;6319929;28;20409;-67
2021/08/02 15:26:14;;;;;;;;;;;19.20;99.90;;;;;;6319436;28;19948;-67
2021/08/02 15:29:16;;;;;;;;;;;19.30;99.90;;;;;;6317201;28;19983;-67
2021/08/02 15:32:19;;;;;;;;;;;19.40;99.90;;;;;;6300530;28;20319;-67
2021/08/02 15:35:21;;;;;;;;;;;19.40;99.90;;;;;;6320169;28;19980;-67
2021/08/02 15:38:24;;;;;;;;;;;19.50;99.90;;;;;;6303230;28;19976;-67
2021/08/02 15:41:26;;;;;;;;;;;19.40;99.90;;;;;;6318328;28;19988;-67
2021/08/02 15:44:28;;;;;;;;;;;19.40;99.90;;;;;;6319047;28;19983;-67
2021/08/02 15:47:31;;;;;;;;;;;19.40;99.90;;;;;;6318623;28;19991;-67
2021/08/02 15:50:35;;;;;;;;;;;19.40;99.90;;;;;;6299186;28;19972;-67
2021/08/02 15:53:40;;;;;;;;;;;19.40;99.90;;;;;;6318551;28;19973;-67
2021/08/02 15:56:44;;;;;;;;;;;19.40;99.90;;;;;;6321249;28;20093;-67
2021/08/02 15:59:57;;;;;;;;;;;19.40;99.90;;;;;;6300115;28;20041;-67
2021/08/02 16:03:11;;;;;;;;;;;19.40;99.90;;;;;;6315720;28;20359;-67
2021/08/02 16:06:13;;;;;;;;;;;19.50;99.90;;;;;;6317979;28;20101;-67
2021/08/02 16:09:15;;;;;;;;;;;19.50;99.90;;;;;;6317649;28;19938;-68
2021/08/02 16:12:24;;;;;;;;;;;19.60;99.90;;;;;;6318474;28;19975;-67
2021/08/02 16:15:26;;;;;;;;;;;19.50;99.90;;;;;;6318203;28;20000;-67
2021/08/02 16:18:27;;;;;;;;;;;19.50;99.90;;;;;;6316672;28;20106;-67
2021/08/02 16:21:29;;;;;;;;;;;19.50;99.90;;;;;;6318341;28;19995;-67
2021/08/02 16:24:31;;;;;;;;;;;19.50;99.90;;;;;;6303263;28;19976;-67
2021/08/02 16:27:33;;;;;;;;;;;19.60;99.90;;;;;;6315916;28;20307;-67
2021/08/02 16:30:35;;;;;;;;;;;19.70;99.90;;;;;;6315566;28;19983;-68
2021/08/02 16:33:40;;;;;;;;;;;20.00;99.90;;;;;;6316740;28;19980;-67
2021/08/02 16:36:42;;;;;;;;;;;20.10;99.90;;;;;;6317893;28;20484;-67
2021/08/02 16:39:44;;;;;;;;;;;20.10;99.90;;;;;;6318461;28;19995;-67
2021/08/02 16:42:46;;;;;;;;;;;20.10;99.90;;;;;;6315842;28;19980;-67
2021/08/02 16:45:47;;;;;;;;;;;19.90;99.90;;;;;;6317349;28;19980;-67
2021/08/02 16:48:49;;;;;;;;;;;19.80;99.90;;;;;;6298477;28;19979;-67
2021/08/02 16:51:51;;;;;;;;;;;19.70;99.90;;;;;;6299367;28;19976;-67
2021/08/02 16:54:52;;;;;;;;;;;19.70;99.90;;;;;;6317315;28;20009;-67
2021/08/02 16:57:54;;;;;;;;;;;19.90;99.90;;;;;;6317917;28;19998;-67
2021/08/02 17:00:55;;;;;;;;;;;19.90;99.90;;;;;;6316239;28;20430;-67
2021/08/02 17:03:57;;;;;;;;;;;20.00;99.90;;;;;;6316470;28;19975;-67
2021/08/02 17:06:59;;;;;;;;;;;20.00;99.90;;;;;;6297758;28;20075;-67
2021/08/02 17:10:01;;;;;;;;;;;19.90;99.90;;;;;;6315631;28;19983;-67
2021/08/02 17:13:02;;;;;;;;;;;19.90;99.90;;;;;;6316960;28;19983;-67
2021/08/02 17:16:04;;;;;;;;;;;19.90;99.90;;;;;;6298993;28;20006;-67
2021/08/02 17:19:06;;;;;;;;;;;19.80;99.90;;;;;;6315905;28;20052;-67
2021/08/02 17:22:08;;;;;;;;;;;19.70;99.90;;;;;;6316614;28;20541;-67
2021/08/02 17:25:09;;;;;;;;;;;19.70;99.90;;;;;;6317670;28;20330;-67
2021/08/02 17:28:11;;;;;;;;;;;19.60;99.90;;;;;;6299179;28;19987;-67
2021/08/02 17:31:13;;;;;;;;;;;19.60;99.90;;;;;;6312968;28;20393;-67
2021/08/02 17:34:15;;;;;;;;;;;19.60;99.90;;;;;;6315407;28;20152;-67
2021/08/02 17:37:16;;;;;;;;;;;19.50;99.90;;;;;;6297407;28;20323;-67
2021/08/02 17:40:18;;;;;;;;;;;19.50;99.90;;;;;;6315043;28;19995;-67
2021/08/02 17:43:20;;;;;;;;;;;19.50;99.90;;;;;;6316164;28;20482;-67
2021/08/02 17:46:21;;;;;;;;;;;19.50;99.90;;;;;;6316116;28;19987;-67
2021/08/02 17:49:23;;;;;;;;;;;19.40;99.90;;;;;;6295274;28;19999;-67